createdAt,value
2023-04-22T00:00:43.894Z,7.9
2023-04-22T00:01:45.442Z,7.9
2023-04-22T00:07:57.993Z,7.9
2023-04-22T00:08:59.539Z,7.9
2023-04-22T00:10:01.048Z,7.9
2023-04-22T00:11:02.658Z,7.9
2023-04-22T00:12:04.321Z,7.9
2023-04-22T00:13:05.899Z,7.9
2023-04-22T00:14:07.272Z,7.9
2023-04-22T00:15:08.533Z,7.8
2023-04-22T00:16:10.410Z,7.8
2023-04-22T00:17:11.980Z,7.8
2023-04-22T00:18:13.753Z,7.8
2023-04-22T00:19:15.361Z,7.8
2023-04-22T00:20:16.950Z,7.8
2023-04-22T00:21:18.323Z,7.7
2023-04-22T00:22:19.924Z,7.7
2023-04-22T00:23:21.331Z,7.7
2023-04-22T00:24:22.469Z,7.7
2023-04-22T00:25:23.988Z,7.7
2023-04-22T00:26:25.534Z,7.7
2023-04-22T00:27:27.035Z,7.7
2023-04-22T00:28:28.512Z,7.6
2023-04-22T00:29:30.054Z,7.6
2023-04-22T00:30:31.615Z,7.6
2023-04-22T00:31:33.538Z,7.6
2023-04-22T00:32:35.411Z,7.5
2023-04-22T00:33:37.043Z,7.4
2023-04-22T00:34:38.555Z,7.3
2023-04-22T00:35:39.938Z,7.3
2023-04-22T00:36:41.460Z,7.2
2023-04-22T00:37:42.747Z,7.1
2023-04-22T00:38:44.264Z,7.2
2023-04-22T00:39:45.795Z,7.2
2023-04-22T00:40:47.193Z,7.1
2023-04-22T00:41:48.736Z,7.1
2023-04-22T00:42:50.240Z,7.1
2023-04-22T00:43:51.769Z,7.1
2023-04-22T00:44:53.313Z,7.1
2023-04-22T00:45:54.890Z,7.1
2023-04-22T00:46:56.744Z,7.1
2023-04-22T00:47:58.874Z,7.1
2023-04-22T00:49:00.349Z,7.1
2023-04-22T00:50:01.789Z,7.1
2023-04-22T00:51:03.291Z,7.1
2023-04-22T00:52:04.867Z,7.2
2023-04-22T00:53:06.390Z,7.1
2023-04-22T00:54:08.022Z,7.1
2023-04-22T00:55:09.458Z,7.2
2023-04-22T00:56:10.810Z,7.1
2023-04-22T00:57:12.414Z,7.1
2023-04-22T00:58:13.887Z,7.1
2023-04-22T00:59:15.302Z,7.1
2023-04-22T01:00:16.758Z,7.1
2023-04-22T01:01:18.588Z,7.1
2023-04-22T01:02:21.109Z,7.1
2023-04-22T01:03:23.837Z,7.1
2023-04-22T01:04:26.145Z,7.1
2023-04-22T01:05:27.713Z,7.1
2023-04-22T01:06:29.161Z,7.1
2023-04-22T01:07:30.676Z,7.1
2023-04-22T01:08:32.182Z,7.1
2023-04-22T01:09:33.668Z,7.1
2023-04-22T01:10:35.122Z,7.1
2023-04-22T01:11:36.662Z,7.1
2023-04-22T01:12:38.261Z,7.2
2023-04-22T01:13:39.856Z,7.2
2023-04-22T01:14:41.360Z,7.2
2023-04-22T01:15:42.887Z,7.2
2023-04-22T01:16:45.158Z,7.2
2023-04-22T01:17:47.123Z,7.2
2023-04-22T01:18:48.669Z,7.2
2023-04-22T01:19:50.231Z,7.2
2023-04-22T01:20:51.643Z,7.2
2023-04-22T01:21:53.019Z,7.2
2023-04-22T01:22:54.441Z,7.2
2023-04-22T01:23:55.895Z,7.1
2023-04-22T01:24:57.446Z,7.1
2023-04-22T01:25:59.040Z,7.1
2023-04-22T01:27:00.418Z,7.1
2023-04-22T01:28:01.827Z,7.1
2023-04-22T01:29:03.453Z,7.1
2023-04-22T01:30:05.109Z,7.1
2023-04-22T01:31:06.586Z,7.1
2023-04-22T01:32:08.639Z,7.1
2023-04-22T01:33:10.537Z,7.1
2023-04-22T01:34:12.140Z,7.1
2023-04-22T01:35:13.728Z,7.1
2023-04-22T01:36:15.275Z,7.1
2023-04-22T01:37:16.626Z,7.1
2023-04-22T01:38:18.160Z,7.1
2023-04-22T01:39:19.694Z,7.1
2023-04-22T01:40:21.269Z,7.1
2023-04-22T01:41:22.796Z,7.2
2023-04-22T01:42:24.294Z,7.1
2023-04-22T01:43:25.854Z,7.1
2023-04-22T01:44:27.354Z,7.2
2023-04-22T01:45:28.911Z,7.2
2023-04-22T01:46:30.956Z,7.1
2023-04-22T01:47:32.621Z,7.1
2023-04-22T01:48:34.166Z,7.2
2023-04-22T01:49:35.895Z,7.2
2023-04-22T01:50:37.285Z,7.2
2023-04-22T01:51:38.697Z,7.2
2023-04-22T01:52:40.076Z,7.2
2023-04-22T01:53:41.622Z,7.2
2023-04-22T01:54:42.938Z,7.2
2023-04-22T01:55:44.484Z,7.2
2023-04-22T01:56:45.989Z,7.2
2023-04-22T01:57:47.493Z,7.2
2023-04-22T01:58:49.048Z,7.2
2023-04-22T01:59:50.598Z,7.2
2023-04-22T02:00:52.152Z,7.2
2023-04-22T02:01:54.184Z,7.2
2023-04-22T02:02:56.249Z,7.3
2023-04-22T02:03:57.839Z,7.3
2023-04-22T02:04:59.687Z,7.3
2023-04-22T02:06:01.318Z,7.3
2023-04-22T02:07:02.909Z,7.3
2023-04-22T02:08:04.462Z,7.3
2023-04-22T02:09:06.231Z,7.4
2023-04-22T02:10:07.995Z,7.4
2023-04-22T02:11:09.620Z,7.5
2023-04-22T02:12:11.183Z,7.6
2023-04-22T02:13:12.778Z,7.6
2023-04-22T02:14:14.345Z,7.7
2023-04-22T02:15:15.730Z,7.7
2023-04-22T02:16:17.628Z,7.8
2023-04-22T02:17:19.235Z,7.8
2023-04-22T02:18:20.605Z,7.9
2023-04-22T02:19:22.146Z,7.9
2023-04-22T02:20:23.704Z,7.9
2023-04-22T02:21:25.277Z,7.9
2023-04-22T02:22:26.790Z,7.9
2023-04-22T02:23:28.354Z,7.9
2023-04-22T02:24:29.753Z,7.9
2023-04-22T02:25:31.313Z,7.9
2023-04-22T02:26:32.824Z,7.9
2023-04-22T02:27:34.352Z,7.9
2023-04-22T02:28:35.818Z,7.9
2023-04-22T02:29:38.529Z,7.9
2023-04-22T02:30:40.026Z,7.8
2023-04-22T02:31:42.111Z,7.8
2023-04-22T02:32:44.178Z,7.6
2023-04-22T02:33:45.714Z,7.5
2023-04-22T02:34:47.104Z,7.4
2023-04-22T02:35:48.787Z,7.2
2023-04-22T02:36:50.320Z,7.1
2023-04-22T02:37:51.854Z,7.1
2023-04-22T02:38:53.157Z,7.1
2023-04-22T02:39:54.535Z,7.1
2023-04-22T02:40:55.968Z,7.1
2023-04-22T02:41:57.502Z,7.1
2023-04-22T02:42:58.981Z,7.1
2023-04-22T02:44:00.541Z,7.1
2023-04-22T02:45:02.105Z,7.1
2023-04-22T02:46:03.838Z,7.1
2023-04-22T02:47:05.997Z,7.1
2023-04-22T02:48:08.436Z,7.1
2023-04-22T02:49:10.160Z,7.1
2023-04-22T02:50:11.717Z,7.1
2023-04-22T02:51:13.408Z,7.1
2023-04-22T02:52:14.935Z,7.1
2023-04-22T02:53:16.363Z,7.2
2023-04-22T02:54:17.913Z,7.2
2023-04-22T02:55:19.497Z,7.2
2023-04-22T02:56:20.974Z,7.2
2023-04-22T02:57:22.532Z,7.2
2023-04-22T02:58:23.832Z,7.2
2023-04-22T02:59:25.342Z,7.2
2023-04-22T03:00:26.937Z,7.2
2023-04-22T03:01:28.958Z,7.2
2023-04-22T03:02:31.720Z,7.2
2023-04-22T03:03:34.662Z,7.2
2023-04-22T03:04:36.738Z,7.2
2023-04-22T03:05:38.338Z,7.2
2023-04-22T03:06:39.863Z,7.2
2023-04-22T03:07:41.285Z,7.3
2023-04-22T03:08:42.683Z,7.3
2023-04-22T03:09:43.976Z,7.3
2023-04-22T03:10:45.504Z,7.3
2023-04-22T03:11:47.094Z,7.4
2023-04-22T03:12:48.576Z,7.4
2023-04-22T03:13:50.085Z,7.5
2023-04-22T03:14:51.390Z,7.6
2023-04-22T03:15:52.806Z,7.6
2023-04-22T03:16:54.956Z,7.7
2023-04-22T03:17:56.986Z,7.8
2023-04-22T03:18:58.513Z,7.9
2023-04-22T03:19:59.925Z,7.9
2023-04-22T03:21:01.450Z,7.9
2023-04-22T03:22:03.032Z,7.9
2023-04-22T03:23:04.590Z,7.8
2023-04-22T03:24:06.001Z,7.9
2023-04-22T03:25:07.113Z,7.9
2023-04-22T03:26:08.609Z,7.9
2023-04-22T03:27:09.983Z,7.9
2023-04-22T03:28:11.372Z,7.9
2023-04-22T03:29:12.688Z,7.9
2023-04-22T03:30:14.239Z,7.9
2023-04-22T03:31:15.782Z,7.9
2023-04-22T03:32:17.798Z,7.9
2023-04-22T03:33:19.711Z,7.9
2023-04-22T03:34:21.249Z,7.9
2023-04-22T03:35:22.967Z,7.9
2023-04-22T03:36:24.509Z,7.9
2023-04-22T03:37:26.066Z,7.9
2023-04-22T03:38:27.602Z,7.9
2023-04-22T03:39:29.071Z,7.9
2023-04-22T03:40:30.477Z,7.9
2023-04-22T03:41:32.040Z,7.9
2023-04-22T03:42:33.556Z,7.9
2023-04-22T03:43:34.916Z,7.8
2023-04-22T03:44:36.303Z,7.9
2023-04-22T03:45:38.153Z,7.9
2023-04-22T03:46:42.258Z,7.9
2023-04-22T03:47:44.291Z,7.9
2023-04-22T03:48:45.835Z,7.8
2023-04-22T03:49:47.250Z,7.9
2023-04-22T03:50:48.661Z,7.9
2023-04-22T03:51:50.193Z,7.7
2023-04-22T03:52:51.763Z,7.9
2023-04-22T03:53:53.307Z,7.9
2023-04-22T03:54:54.825Z,7.9
2023-04-22T03:55:56.328Z,7.9
2023-04-22T03:56:57.760Z,7.9
2023-04-22T03:57:59.313Z,7.9
2023-04-22T03:59:00.798Z,7.5
2023-04-22T04:00:02.238Z,7.6
2023-04-22T04:01:03.778Z,7.8
2023-04-22T04:02:05.918Z,7.9
2023-04-22T04:03:09.660Z,7.9
2023-04-22T04:04:13.081Z,7.9
2023-04-22T04:05:15.330Z,7.9
2023-04-22T04:06:17.007Z,7.9
2023-04-22T04:07:18.468Z,7.9
2023-04-22T04:08:20.023Z,7.9
2023-04-22T04:09:21.477Z,7.9
2023-04-22T04:10:22.906Z,7.9
2023-04-22T04:11:24.105Z,7.9
2023-04-22T04:12:25.536Z,7.9
2023-04-22T04:13:27.054Z,7.9
2023-04-22T04:14:28.545Z,7.9
2023-04-22T04:15:29.997Z,7.9
2023-04-22T04:16:32.937Z,7.9
2023-04-22T04:17:34.870Z,7.9
2023-04-22T04:18:36.499Z,7.9
2023-04-22T04:19:39.779Z,7.9
2023-04-22T04:20:41.465Z,7.9
2023-04-22T04:21:42.938Z,7.9
2023-04-22T04:22:44.521Z,7.2
2023-04-22T04:23:46.088Z,7.3
2023-04-22T04:24:47.744Z,7.4
2023-04-22T04:25:49.405Z,7.5
2023-04-22T04:26:51.076Z,7.5
2023-04-22T04:27:52.620Z,7.6
2023-04-22T04:28:54.138Z,7.5
2023-04-22T04:29:55.639Z,7.5
2023-04-22T04:30:57.483Z,7.4
2023-04-22T04:31:59.081Z,7.3
2023-04-22T04:33:01.079Z,7.2
2023-04-22T04:34:02.488Z,7.2
2023-04-22T04:35:03.985Z,7.1
2023-04-22T04:36:05.494Z,7.1
2023-04-22T04:37:07.105Z,7.2
2023-04-22T04:38:08.608Z,7.1
2023-04-22T04:39:10.225Z,7.1
2023-04-22T04:40:11.720Z,7.1
2023-04-22T04:41:13.147Z,7.1
2023-04-22T04:42:14.720Z,7.1
2023-04-22T04:43:16.307Z,7.1
2023-04-22T04:44:17.481Z,7.1
2023-04-22T04:45:19.041Z,7.1
2023-04-22T04:46:20.747Z,7.1
2023-04-22T04:47:22.649Z,7.1
2023-04-22T04:48:24.137Z,7.1
2023-04-22T04:49:25.687Z,7.1
2023-04-22T04:50:27.229Z,7.1
2023-04-22T04:51:28.781Z,7.1
2023-04-22T04:52:30.400Z,7.1
2023-04-22T04:53:31.812Z,7.1
2023-04-22T04:54:33.802Z,7.1
2023-04-22T04:55:35.351Z,7.1
2023-04-22T04:56:36.798Z,7.2
2023-04-22T04:57:40.058Z,7.1
2023-04-22T04:58:41.603Z,7.2
2023-04-22T04:59:43.795Z,7.2
2023-04-22T05:00:45.203Z,7.2
2023-04-22T05:01:46.925Z,7.2
2023-04-22T05:02:49.298Z,7.2
2023-04-22T05:03:52.026Z,7.2
2023-04-22T05:04:54.352Z,7.2
2023-04-22T05:05:55.909Z,7.2
2023-04-22T05:06:57.346Z,7.2
2023-04-22T05:07:58.887Z,7.2
2023-04-22T05:09:00.287Z,7.2
2023-04-22T05:10:01.902Z,7.2
2023-04-22T05:11:03.434Z,7.2
2023-04-22T05:12:04.845Z,7.2
2023-04-22T05:13:06.451Z,7.3
2023-04-22T05:14:08.059Z,7.4
2023-04-22T05:15:09.493Z,7.5
2023-04-22T05:16:11.201Z,7.7
2023-04-22T05:17:12.738Z,7.8
2023-04-22T05:18:14.258Z,7.9
2023-04-22T05:19:15.685Z,7.9
2023-04-22T05:20:17.128Z,7.9
2023-04-22T05:21:18.673Z,7.8
2023-04-22T05:22:20.170Z,7.9
2023-04-22T05:23:21.718Z,7.9
2023-04-22T05:24:23.386Z,7.5
2023-04-22T05:25:25.074Z,7.6
2023-04-22T05:26:26.617Z,7.7
2023-04-22T05:27:28.197Z,7.8
2023-04-22T05:28:29.728Z,7.9
2023-04-22T05:29:31.204Z,7.9
2023-04-22T05:30:32.718Z,7.9
2023-04-22T05:31:34.515Z,7.9
2023-04-22T05:32:36.334Z,7.9
2023-04-22T05:33:37.911Z,7.9
2023-04-22T05:34:39.459Z,7.9
2023-04-22T05:35:41.004Z,7.9
2023-04-22T05:36:42.430Z,7.9
2023-04-22T05:37:43.892Z,7.9
2023-04-22T05:38:45.311Z,7.9
2023-04-22T05:39:46.861Z,7.8
2023-04-22T05:40:48.460Z,7.8
2023-04-22T05:41:49.886Z,7.8
2023-04-22T05:42:51.293Z,7.8
2023-04-22T05:43:52.850Z,7.8
2023-04-22T05:44:54.319Z,7.8
2023-04-22T05:45:56.326Z,7.8
2023-04-22T05:46:57.817Z,7.8
2023-04-22T05:47:59.658Z,7.8
2023-04-22T05:49:01.284Z,7.7
2023-04-22T05:50:02.712Z,7.7
2023-04-22T05:51:04.316Z,7.7
2023-04-22T05:52:05.894Z,7.7
2023-04-22T05:53:07.401Z,7.7
2023-04-22T05:54:09.006Z,7.7
2023-04-22T05:55:10.539Z,7.7
2023-04-22T05:56:12.079Z,7.6
2023-04-22T05:57:13.581Z,7.6
2023-04-22T05:58:15.161Z,7.6
2023-04-22T05:59:17.853Z,7.6
2023-04-22T06:00:19.906Z,7.6
2023-04-22T06:01:21.441Z,7.6
2023-04-22T06:02:23.617Z,7.6
2023-04-22T06:03:26.680Z,7.6
2023-04-22T06:04:30.958Z,7.6
2023-04-22T06:05:34.228Z,7.6
2023-04-22T06:06:35.805Z,7.6
2023-04-22T06:07:37.387Z,7.6
2023-04-22T06:08:38.856Z,7.6
2023-04-22T06:09:42.532Z,7.6
2023-04-22T06:10:44.092Z,7.7
2023-04-22T06:11:45.510Z,7.7
2023-04-22T06:12:46.898Z,7.7
2023-04-22T06:13:48.334Z,7.7
2023-04-22T06:14:49.884Z,7.7
2023-04-22T06:15:51.732Z,7.8
2023-04-22T06:16:53.067Z,7.8
2023-04-22T06:17:54.823Z,7.8
2023-04-22T06:18:55.944Z,7.8
2023-04-22T06:19:57.324Z,7.8
2023-04-22T06:20:58.899Z,7.8
2023-04-22T06:22:00.417Z,7.8
2023-04-22T06:23:01.997Z,7.8
2023-04-22T06:24:03.355Z,7.8
2023-04-22T06:25:04.759Z,7.8
2023-04-22T06:26:06.091Z,7.8
2023-04-22T06:27:07.527Z,7.9
2023-04-22T06:28:08.755Z,7.9
2023-04-22T06:29:10.364Z,7.9
2023-04-22T06:30:11.904Z,7.9
2023-04-22T06:31:13.606Z,7.9
2023-04-22T06:32:15.203Z,7.9
2023-04-22T06:33:17.012Z,7.9
2023-04-22T06:34:18.416Z,7.9
2023-04-22T06:35:19.960Z,7.9
2023-04-22T06:36:21.558Z,7.9
2023-04-22T06:37:23.082Z,7.9
2023-04-22T06:38:24.999Z,7.9
2023-04-22T06:39:26.547Z,7.9
2023-04-22T06:40:28.150Z,7.8
2023-04-22T06:41:29.759Z,7.8
2023-04-22T06:42:31.293Z,7.7
2023-04-22T06:43:32.842Z,7.7
2023-04-22T06:44:34.282Z,7.6
2023-04-22T06:45:35.828Z,7.5
2023-04-22T06:46:37.593Z,7.4
2023-04-22T06:47:39.314Z,7.2
2023-04-22T06:48:40.578Z,7.1
2023-04-22T06:49:43.240Z,7.1
2023-04-22T06:50:44.785Z,7.1
2023-04-22T06:51:46.328Z,7.1
2023-04-22T06:52:47.973Z,7.1
2023-04-22T06:53:49.613Z,7.1
2023-04-22T06:54:51.164Z,7.1
2023-04-22T06:55:52.742Z,7.1
2023-04-22T06:56:54.164Z,7.1
2023-04-22T06:57:55.743Z,7.1
2023-04-22T06:58:57.267Z,7.1
2023-04-22T06:59:58.821Z,7.1
2023-04-22T07:01:00.217Z,7.1
2023-04-22T07:02:01.973Z,7.1
2023-04-22T07:03:04.177Z,7.1
2023-04-22T07:04:05.842Z,7.1
2023-04-22T07:05:07.388Z,7.1
2023-04-22T07:06:08.820Z,7.2
2023-04-22T07:07:10.432Z,7.1
2023-04-22T07:08:11.979Z,7.1
2023-04-22T07:09:13.627Z,7.1
2023-04-22T07:10:15.177Z,7.2
2023-04-22T07:11:16.769Z,7.2
2023-04-22T07:12:18.312Z,7.2
2023-04-22T07:13:19.860Z,7.2
2023-04-22T07:14:21.328Z,7.2
2023-04-22T07:15:22.744Z,7.2
2023-04-22T07:16:24.428Z,7.2
2023-04-22T07:17:26.107Z,7.3
2023-04-22T07:18:27.627Z,7.3
2023-04-22T07:19:29.014Z,7.4
2023-04-22T07:20:30.620Z,7.4
2023-04-22T07:21:32.175Z,7.5
2023-04-22T07:22:33.618Z,7.6
2023-04-22T07:23:35.088Z,7.7
2023-04-22T07:24:36.457Z,7.8
2023-04-22T07:25:37.834Z,7.9
2023-04-22T07:26:39.478Z,7.9
2023-04-22T07:27:41.052Z,7.9
2023-04-22T07:28:42.725Z,7.9
2023-04-22T07:29:44.265Z,7.9
2023-04-22T07:30:45.821Z,7.9
2023-04-22T07:31:47.340Z,7.9
2023-04-22T07:32:50.517Z,7.9
2023-04-22T07:33:51.969Z,7.9
2023-04-22T07:34:53.384Z,7.9
2023-04-22T07:35:54.780Z,7.9
2023-04-22T07:36:56.170Z,7.9
2023-04-22T07:37:57.566Z,7.9
2023-04-22T07:38:58.958Z,7.9
2023-04-22T07:40:00.485Z,7.9
2023-04-22T07:41:02.019Z,7.8
2023-04-22T07:42:03.581Z,7.8
2023-04-22T07:43:05.016Z,7.8
2023-04-22T07:44:06.400Z,7.9
2023-04-22T07:45:07.669Z,7.8
2023-04-22T07:46:09.442Z,7.8
2023-04-22T07:47:11.043Z,7.8
2023-04-22T07:48:12.572Z,7.8
2023-04-22T07:49:14.360Z,7.8
2023-04-22T07:50:15.942Z,7.9
2023-04-22T07:51:17.231Z,7.9
2023-04-22T07:52:18.641Z,7.9
2023-04-22T07:53:20.162Z,7.9
2023-04-22T07:54:21.685Z,7.9
2023-04-22T07:55:23.220Z,7.9
2023-04-22T07:56:24.737Z,7.9
2023-04-22T07:57:26.163Z,7.9
2023-04-22T07:58:27.680Z,7.8
2023-04-22T07:59:29.210Z,7.8
2023-04-22T08:00:30.921Z,7.8
2023-04-22T08:01:32.479Z,7.8
2023-04-22T08:02:34.778Z,7.8
2023-04-22T08:03:37.939Z,7.8
2023-04-22T08:04:39.744Z,7.9
2023-04-22T08:05:41.231Z,7.8
2023-04-22T08:06:42.602Z,7.9
2023-04-22T08:07:44.139Z,7.9
2023-04-22T08:08:45.739Z,7.9
2023-04-22T08:09:47.242Z,7.9
2023-04-22T08:10:48.774Z,7.8
2023-04-22T08:11:50.289Z,7.8
2023-04-22T08:12:51.841Z,7.8
2023-04-22T08:13:53.469Z,7.7
2023-04-22T08:14:55.168Z,7.6
2023-04-22T08:15:57.009Z,7.5
2023-04-22T08:16:58.555Z,7.4
2023-04-22T08:18:00.396Z,7.2
2023-04-22T08:19:01.977Z,7.1
2023-04-22T08:20:07.383Z,7.1
2023-04-22T08:21:09.440Z,7.1
2023-04-22T08:22:11.061Z,7.1
2023-04-22T08:23:12.568Z,7.1
2023-04-22T08:24:14.007Z,7.1
2023-04-22T08:25:15.396Z,7.1
2023-04-22T08:26:16.993Z,7.1
2023-04-22T08:27:18.236Z,7.1
2023-04-22T08:28:19.795Z,7.1
2023-04-22T08:29:21.214Z,7.1
2023-04-22T08:30:23.051Z,7.1
2023-04-22T08:31:24.869Z,7.1
2023-04-22T08:32:26.540Z,7.1
2023-04-22T08:33:28.874Z,7.1
2023-04-22T08:34:30.415Z,7.1
2023-04-22T08:35:31.932Z,7.1
2023-04-22T08:36:33.346Z,7.1
2023-04-22T08:37:34.746Z,7.1
2023-04-22T08:38:36.346Z,7.1
2023-04-22T08:39:39.782Z,7.2
2023-04-22T08:40:41.366Z,7.1
2023-04-22T08:41:42.942Z,7.2
2023-04-22T08:42:44.503Z,7.2
2023-04-22T08:43:46.097Z,7.2
2023-04-22T08:44:47.720Z,7.2
2023-04-22T08:45:49.287Z,7.2
2023-04-22T08:46:51.059Z,7.2
2023-04-22T08:47:53.133Z,7.2
2023-04-22T08:48:54.692Z,7.2
2023-04-22T08:49:56.099Z,7.2
2023-04-22T08:50:57.609Z,7.2
2023-04-22T08:51:59.160Z,7.2
2023-04-22T08:53:00.666Z,7.2
2023-04-22T08:54:01.957Z,7.2
2023-04-22T08:55:03.586Z,7.2
2023-04-22T08:56:05.152Z,7.2
2023-04-22T08:57:06.695Z,7.2
2023-04-22T08:58:08.123Z,7.2
2023-04-22T08:59:09.573Z,7.2
2023-04-22T09:00:11.136Z,7.3
2023-04-22T09:01:13.020Z,7.3
2023-04-22T09:02:14.901Z,7.4
2023-04-22T09:03:16.813Z,7.4
2023-04-22T09:04:19.069Z,7.5
2023-04-22T09:05:20.431Z,7.7
2023-04-22T09:06:22.013Z,7.8
2023-04-22T09:07:23.648Z,7.9
2023-04-22T09:08:25.141Z,7.9
2023-04-22T09:09:26.283Z,7.9
2023-04-22T09:10:27.720Z,7.9
2023-04-22T09:11:29.136Z,7.9
2023-04-22T09:12:30.635Z,7.9
2023-04-22T09:13:32.150Z,7.9
2023-04-22T09:14:33.573Z,7.9
2023-04-22T09:15:34.936Z,7.9
2023-04-22T09:16:36.861Z,7.9
2023-04-22T09:17:38.708Z,7.9
2023-04-22T09:18:40.311Z,7.9
2023-04-22T09:19:42.820Z,7.8
2023-04-22T09:20:44.344Z,7.9
2023-04-22T09:21:55.001Z,7.9
2023-04-22T09:22:56.669Z,7.9
2023-04-22T09:23:58.207Z,7.9
2023-04-22T09:24:59.748Z,7.3
2023-04-22T09:26:01.301Z,7.4
2023-04-22T09:27:02.685Z,7.5
2023-04-22T09:28:04.345Z,7.7
2023-04-22T09:29:05.779Z,7.8
2023-04-22T09:30:07.357Z,7.9
2023-04-22T09:31:08.834Z,7.3
2023-04-22T09:32:11.043Z,7.4
2023-04-22T09:33:12.904Z,7.6
2023-04-22T09:34:14.474Z,7.7
2023-04-22T09:35:15.983Z,7.8
2023-04-22T09:36:17.469Z,7.9
2023-04-22T09:37:19.009Z,7.9
2023-04-22T09:38:20.396Z,7.9
2023-04-22T09:39:21.974Z,7.9
2023-04-22T09:40:23.490Z,7.9
2023-04-22T09:41:25.041Z,7.8
2023-04-22T09:42:26.587Z,7.8
2023-04-22T09:43:28.157Z,7.7
2023-04-22T09:44:29.578Z,7.7
2023-04-22T09:45:31.399Z,7.6
2023-04-22T09:46:33.085Z,7.5
2023-04-22T09:47:34.809Z,7.4
2023-04-22T09:48:36.261Z,7.2
2023-04-22T09:49:38.962Z,7.2
2023-04-22T09:50:40.714Z,7.1
2023-04-22T09:51:42.245Z,7.1
2023-04-22T09:52:43.859Z,7.1
2023-04-22T09:53:45.268Z,7.2
2023-04-22T09:54:46.865Z,7.1
2023-04-22T09:55:48.431Z,7.1
2023-04-22T09:56:50.269Z,7.1
2023-04-22T09:57:51.664Z,7.1
2023-04-22T09:58:53.239Z,7.2
2023-04-22T09:59:54.605Z,7.1
2023-04-22T10:00:56.482Z,7.1
2023-04-22T10:01:58.069Z,7.2
2023-04-22T10:03:00.594Z,7.1
2023-04-22T10:04:02.611Z,7.2
2023-04-22T10:05:04.221Z,7.2
2023-04-22T10:06:05.591Z,7.2
2023-04-22T10:07:07.030Z,7.2
2023-04-22T10:08:08.927Z,7.2
2023-04-22T10:09:11.218Z,7.2
2023-04-22T10:10:12.742Z,7.2
2023-04-22T10:11:14.380Z,7.2
2023-04-22T10:12:36.835Z,7.2
2023-04-22T10:13:38.355Z,7.2
2023-04-22T10:14:39.903Z,7.2
2023-04-22T10:15:41.448Z,7.2
2023-04-22T10:16:43.116Z,7.2
2023-04-22T10:17:44.908Z,7.2
2023-04-22T10:18:46.410Z,7.2
2023-04-22T10:19:47.919Z,7.2
2023-04-22T10:20:49.571Z,7.2
2023-04-22T10:21:51.071Z,7.2
2023-04-22T10:22:52.644Z,7.2
2023-04-22T10:23:53.957Z,7.2
2023-04-22T10:24:55.463Z,7.1
2023-04-22T10:25:57.034Z,7.2
2023-04-22T10:26:58.579Z,7.1
2023-04-22T10:28:00.128Z,7.2
2023-04-22T10:29:01.502Z,7.2
2023-04-22T10:30:02.945Z,7.1
2023-04-22T10:31:04.653Z,7.2
2023-04-22T10:32:06.092Z,7.1
2023-04-22T10:33:07.371Z,7.1
2023-04-22T10:34:09.139Z,7.2
2023-04-22T10:35:10.812Z,7.2
2023-04-22T10:36:12.379Z,7.2
2023-04-22T10:37:13.840Z,7.2
2023-04-22T10:38:15.372Z,7.2
2023-04-22T10:39:17.024Z,7.2
2023-04-22T10:40:18.655Z,7.2
2023-04-22T10:41:20.225Z,7.2
2023-04-22T10:42:21.691Z,7.2
2023-04-22T10:43:23.313Z,7.2
2023-04-22T10:44:24.856Z,7.2
2023-04-22T10:45:26.627Z,7.2
2023-04-22T10:46:28.456Z,7.2
2023-04-22T10:47:30.247Z,7.2
2023-04-22T10:48:31.817Z,7.2
2023-04-22T10:49:33.420Z,7.2
2023-04-22T10:50:34.980Z,7.2
2023-04-22T10:51:36.485Z,7.2
2023-04-22T10:52:38.246Z,7.2
2023-04-22T10:53:39.818Z,7.2
2023-04-22T10:54:41.340Z,7.2
2023-04-22T10:55:42.696Z,7.2
2023-04-22T10:56:59.568Z,7.2
2023-04-22T10:58:01.078Z,7.3
2023-04-22T10:59:02.293Z,7.3
2023-04-22T11:00:03.828Z,7.3
2023-04-22T11:01:05.266Z,7.3
2023-04-22T11:02:07.321Z,7.4
2023-04-22T11:03:10.132Z,7.4
2023-04-22T11:04:12.483Z,7.4
2023-04-22T11:05:14.098Z,7.5
2023-04-22T11:06:15.573Z,7.6
2023-04-22T11:07:17.061Z,7.7
2023-04-22T11:08:18.636Z,7.7
2023-04-22T11:09:20.167Z,7.8
2023-04-22T11:10:21.596Z,7.9
2023-04-22T11:11:23.121Z,7.9
2023-04-22T11:12:24.662Z,7.9
2023-04-22T11:13:26.232Z,7.9
2023-04-22T11:14:27.645Z,7.9
2023-04-22T11:15:29.161Z,7.9
2023-04-22T11:16:30.779Z,7.9
2023-04-22T11:17:32.554Z,7.9
2023-04-22T11:18:34.153Z,7.9
2023-04-22T11:19:35.728Z,7.9
2023-04-22T11:20:37.276Z,7.9
2023-04-22T11:21:38.750Z,7.9
2023-04-22T11:22:40.317Z,7.9
2023-04-22T11:23:41.838Z,7.9
2023-04-22T11:24:43.122Z,7.9
2023-04-22T11:25:44.660Z,7.9
2023-04-22T11:26:46.161Z,7.9
2023-04-22T11:27:47.446Z,7.7
2023-04-22T11:28:48.912Z,7.9
2023-04-22T11:29:50.569Z,7.9
2023-04-22T11:30:52.178Z,7.9
2023-04-22T11:31:54.176Z,7.9
2023-04-22T11:32:56.082Z,7.9
2023-04-22T11:33:57.678Z,7.9
2023-04-22T11:34:59.278Z,7.9
2023-04-22T11:36:00.781Z,7.9
2023-04-22T11:37:02.289Z,7.7
2023-04-22T11:38:03.843Z,7.8
2023-04-22T11:39:05.376Z,7.9
2023-04-22T12:11:20.135Z,7.2
2023-04-22T12:12:21.689Z,7.1
2023-04-22T12:13:23.298Z,7.1
2023-04-22T12:14:24.794Z,7.1
2023-04-22T12:15:26.213Z,7.1
2023-04-22T12:16:27.965Z,7.1
2023-04-22T12:17:29.796Z,7.1
2023-04-22T12:18:31.324Z,7.1
2023-04-22T12:19:32.859Z,7.1
2023-04-22T12:20:34.342Z,7.1
2023-04-22T12:21:35.637Z,7.1
2023-04-22T12:22:37.246Z,7.1
2023-04-22T12:23:38.790Z,7.2
2023-04-22T12:24:40.340Z,7.2
2023-04-22T12:25:41.906Z,7.1
2023-04-22T12:26:43.432Z,7.1
2023-04-22T12:27:44.967Z,7.2
2023-04-22T12:28:46.497Z,7.2
2023-04-22T12:29:48.003Z,7.2
2023-04-22T12:30:49.763Z,7.2
2023-04-22T12:31:51.306Z,7.2
2023-04-22T12:32:52.945Z,7.2
2023-04-22T12:33:54.932Z,7.2
2023-04-22T12:34:56.352Z,7.2
2023-04-22T12:35:58.160Z,7.2
2023-04-22T12:36:59.779Z,7.2
2023-04-22T12:38:01.337Z,7.2
2023-04-22T12:39:02.742Z,7.2
2023-04-22T12:40:04.192Z,7.2
2023-04-22T12:41:05.798Z,7.2
2023-04-22T12:42:07.429Z,7.2
2023-04-22T12:43:08.968Z,7.2
2023-04-22T12:44:10.412Z,7.2
2023-04-22T12:45:12.180Z,7.2
2023-04-22T12:46:13.849Z,7.2
2023-04-22T12:47:15.475Z,7.2
2023-04-22T12:48:17.036Z,7.2
2023-04-22T12:49:18.491Z,7.2
2023-04-22T12:50:19.895Z,7.2
2023-04-22T12:51:21.531Z,7.2
2023-04-22T12:52:23.082Z,7.2
2023-04-22T12:53:24.647Z,7.2
2023-04-22T12:54:26.189Z,7.3
2023-04-22T12:55:27.684Z,7.3
2023-04-22T12:56:29.362Z,7.3
2023-04-22T12:57:30.956Z,7.3
2023-04-22T12:58:32.376Z,7.4
2023-04-22T12:59:33.951Z,7.4
2023-04-22T13:00:35.518Z,7.4
2023-04-22T13:01:37.461Z,7.5
2023-04-22T13:02:39.808Z,7.6
2023-04-22T13:03:42.642Z,7.6
2023-04-22T13:04:44.787Z,7.7
2023-04-22T13:05:46.331Z,7.7
2023-04-22T13:06:47.875Z,7.7
2023-04-22T13:33:50.139Z,7.9
2023-04-22T13:34:51.537Z,7.9
2023-04-22T13:35:53.139Z,7.9
2023-04-22T13:36:54.418Z,7.9
2023-04-22T13:37:56.010Z,7.8
2023-04-22T13:38:57.465Z,7.8
2023-04-22T13:39:59.284Z,7.8
2023-04-22T13:44:09.023Z,7.5
2023-04-22T13:45:10.536Z,7.4
2023-04-22T13:46:12.373Z,7.3
2023-04-22T13:47:13.951Z,7.2
2023-04-22T13:48:15.503Z,7.2
2023-04-22T13:49:17.101Z,7.2
2023-04-22T13:50:18.703Z,7.2
2023-04-22T13:51:20.187Z,7.2
2023-04-22T13:52:21.807Z,7.2
2023-04-22T13:53:23.310Z,7.2
2023-04-22T13:54:24.930Z,7.2
2023-04-22T13:55:26.528Z,7.2
2023-04-22T13:56:28.153Z,7.2
2023-04-22T13:57:29.462Z,7.2
2023-04-22T13:58:30.915Z,7.2
2023-04-22T13:59:32.518Z,7.2
2023-04-22T14:00:33.953Z,7.2
2023-04-22T14:01:36.077Z,7.2
2023-04-22T14:02:38.314Z,7.2
2023-04-22T14:03:40.641Z,7.2
2023-04-22T14:04:42.173Z,7.2
2023-04-22T14:05:43.698Z,7.2
2023-04-22T14:06:45.165Z,7.2
2023-04-22T14:07:46.735Z,7.2
2023-04-22T14:08:48.289Z,7.2
2023-04-22T14:09:49.763Z,7.2
2023-04-22T14:10:51.288Z,7.2
2023-04-22T14:11:52.701Z,7.2
2023-04-22T14:12:54.256Z,7.2
2023-04-22T14:13:55.823Z,7.2
2023-04-22T14:14:57.414Z,7.2
2023-04-22T14:15:58.818Z,7.2
2023-04-22T14:17:00.718Z,7.2
2023-04-22T14:18:02.484Z,7.3
2023-04-22T14:19:03.958Z,7.3
2023-04-22T14:20:05.377Z,7.3
2023-04-22T14:21:06.919Z,7.3
2023-04-22T14:22:08.519Z,7.3
2023-04-22T14:23:10.053Z,7.3
2023-04-22T14:24:11.626Z,7.3
2023-04-22T14:25:13.205Z,7.3
2023-04-22T14:26:14.825Z,7.3
2023-04-22T14:27:16.222Z,7.4
2023-04-22T14:28:17.815Z,7.4
2023-04-22T14:29:19.391Z,7.4
2023-04-22T14:30:20.841Z,7.4
2023-04-22T14:31:23.060Z,7.4
2023-04-22T14:32:24.667Z,7.4
2023-04-22T14:33:26.115Z,7.4
2023-04-22T14:34:27.911Z,7.4
2023-04-22T14:35:29.430Z,7.5
2023-04-22T14:36:30.979Z,7.5
2023-04-22T14:37:32.747Z,7.5
2023-04-22T14:38:34.156Z,7.5
2023-04-22T14:39:35.743Z,7.6
2023-04-22T14:40:37.165Z,7.6
2023-04-22T14:41:38.649Z,7.6
2023-04-22T14:42:40.049Z,7.6
2023-04-22T14:43:41.691Z,7.7
2023-04-22T14:44:43.226Z,7.7
2023-04-22T14:45:44.756Z,7.7
2023-04-22T14:46:46.310Z,7.7
2023-04-22T14:47:48.024Z,7.7
2023-04-22T14:48:49.474Z,7.7
2023-04-22T14:49:51.008Z,7.7
2023-04-22T14:50:52.558Z,7.8
2023-04-22T14:51:54.010Z,7.8
2023-04-22T14:52:55.593Z,7.8
2023-04-22T15:32:19.575Z,7.9
2023-04-22T15:33:21.100Z,7.9
2023-04-22T15:34:22.507Z,7.9
2023-04-22T15:35:24.119Z,7.9
2023-04-22T15:36:25.660Z,7.9
2023-04-22T15:37:27.226Z,7.9
2023-04-22T15:38:28.641Z,7.9
2023-04-22T15:39:30.220Z,7.2
2023-04-22T15:40:31.529Z,7.2
2023-04-22T15:41:32.999Z,7.3
2023-04-22T15:42:34.440Z,7.2
2023-04-22T15:43:36.005Z,7.2
2023-04-22T15:44:37.551Z,7.2
2023-04-22T15:45:39.101Z,7.2
2023-04-22T15:46:40.989Z,7.2
2023-04-22T15:47:43.223Z,7.2
2023-04-22T15:48:44.810Z,7.2
2023-04-22T15:49:46.225Z,7.2
2023-04-22T15:50:47.762Z,7.2
2023-04-22T15:51:49.323Z,7.2
2023-04-22T15:52:50.758Z,7.1
2023-04-22T15:53:52.276Z,7.2